Time,TemperatureF,DewpointF,PressureIn,WindDirection,WindDirectionDegrees,WindSpeedMPH,WindSpeedGustMPH,Humidity,HourlyPrecipIn,Conditions,Clouds,dailyrainin,SoftwareType,DateUTC
2013-05-25 00:01:00,54.1,44.2,30.23,North,355,0.0,2.6,69,0.00,,CLR,0.00,VWS V14.01,2013-05-25 04:01:00,
2013-05-25 00:02:00,54.3,44.4,30.23,NW,312,0.0,2.6,69,0.00,,CLR,0.00,VWS V14.01,2013-05-25 04:02:00,
2013-05-25 00:04:00,54.4,44.5,30.22,NW,312,1.3,1.3,69,0.00,,CLR,0.00,VWS V14.01,2013-05-25 04:04:00,
2013-05-25 00:09:00,54.6,44.3,30.23,NW,312,0.0,1.3,68,0.00,,CLR,0.00,VWS V14.01,2013-05-25 04:09:00,
2013-05-25 00:10:00,54.6,44.7,30.23,NW,312,0.0,1.3,69,0.00,,CLR,0.00,VWS V14.01,2013-05-25 04:10:00,
2013-05-25 00:15:00,54.6,44.7,30.23,NW,317,0.0,1.3,69,0.00,,CLR,0.00,VWS V14.01,2013-05-25 04:15:00,
2013-05-25 00:20:00,54.8,43.3,30.22,NW,315,1.3,1.3,65,0.00,,CLR,0.00,VWS V14.01,2013-05-25 04:20:00,
2013-05-25 00:25:00,55.2,44.0,30.22,NNW,330,0.0,3.9,66,0.00,,CLR,0.00,VWS V14.01,2013-05-25 04:25:00,
2013-05-25 00:30:00,55.4,43.8,30.22,WNW,298,0.0,5.2,65,0.00,,CLR,0.00,VWS V14.01,2013-05-25 04:30:00,
2013-05-25 00:35:00,55.4,44.6,30.22,WNW,298,0.0,2.6,67,0.00,,CLR,0.00,VWS V14.01,2013-05-25 04:35:00,
2013-05-25 00:40:00,55.3,44.2,30.22,WNW,298,3.9,3.9,66,0.00,,CLR,0.00,VWS V14.01,2013-05-25 04:40:00,
2013-05-25 00:45:00,55.3,43.8,30.22,WNW,298,0.0,1.3,65,0.00,,CLR,0.00,VWS V14.01,2013-05-25 04:45:00,
2013-05-25 00:50:00,55.4,43.4,30.22,WNW,298,1.3,1.3,64,0.00,,CLR,0.00,VWS V14.01,2013-05-25 04:50:00,
2013-05-25 00:55:00,55.6,44.4,30.22,NW,304,0.0,1.3,66,0.00,,CLR,0.00,VWS V14.01,2013-05-25 04:55:00,
2013-05-25 01:00:00,55.7,44.1,30.22,NW,304,0.0,1.3,65,0.00,,CLR,0.00,VWS V14.01,2013-05-25 05:00:00,
2013-05-25 01:05:00,55.7,43.3,30.22,East,98,1.3,1.3,63,0.00,,CLR,0.00,VWS V14.01,2013-05-25 05:05:00,
2013-05-25 01:10:00,55.7,44.5,30.22,East,98,0.0,0.0,66,0.00,,CLR,0.00,VWS V14.01,2013-05-25 05:10:00,
2013-05-25 01:15:00,55.5,44.3,30.22,East,98,0.0,0.0,66,0.00,,CLR,0.00,VWS V14.01,2013-05-25 05:15:00,
2013-05-25 01:20:00,55.1,43.6,30.23,East,98,0.0,1.3,65,0.00,,CLR,0.00,VWS V14.01,2013-05-25 05:20:00,
2013-05-25 01:25:00,54.7,44.0,30.23,East,98,0.0,0.0,67,0.00,,CLR,0.00,VWS V14.01,2013-05-25 05:25:00,
2013-05-25 01:30:00,54.3,44.0,30.23,East,98,0.0,0.0,68,0.00,,CLR,0.00,VWS V14.01,2013-05-25 05:30:00,
2013-05-25 01:35:00,54.2,43.5,30.23,East,98,0.0,1.3,67,0.00,,CLR,0.00,VWS V14.01,2013-05-25 05:35:00,
2013-05-25 01:40:00,54.3,43.6,30.23,East,98,0.0,1.3,67,0.00,,CLR,0.00,VWS V14.01,2013-05-25 05:40:00,
2013-05-25 01:45:00,54.3,44.0,30.23,East,98,0.0,1.3,68,0.00,,CLR,0.00,VWS V14.01,2013-05-25 05:45:00,
2013-05-25 01:50:00,54.3,43.6,30.23,East,98,0.0,1.3,67,0.00,,CLR,0.00,VWS V14.01,2013-05-25 05:50:00,
2013-05-25 01:55:00,54.3,43.6,30.23,East,98,0.0,1.3,67,0.00,,CLR,0.00,VWS V14.01,2013-05-25 05:55:00,
2013-05-25 02:00:00,54.4,43.7,30.23,NW,307,1.3,1.3,67,0.00,,CLR,0.00,VWS V14.01,2013-05-25 06:00:00,
2013-05-25 02:05:00,54.6,43.5,30.23,NW,307,1.3,1.3,66,0.00,,CLR,0.00,VWS V14.01,2013-05-25 06:05:00,
2013-05-25 02:10:00,54.7,42.8,30.23,NE,40,0.0,3.9,64,0.00,,CLR,0.00,VWS V14.01,2013-05-25 06:10:00,
2013-05-25 02:15:00,54.8,42.9,30.23,NE,35,2.6,2.6,64,0.00,,CLR,0.00,VWS V14.01,2013-05-25 06:15:00,
2013-05-25 02:21:00,54.9,43.0,30.23,NW,313,0.0,3.9,64,0.00,,CLR,0.00,VWS V14.01,2013-05-25 06:21:00,
2013-05-25 02:26:00,55.1,42.8,30.23,NE,52,1.3,2.6,63,0.00,,CLR,0.00,VWS V14.01,2013-05-25 06:26:00,
2013-05-25 02:31:00,55.3,42.9,30.23,NNW,328,0.0,1.3,63,0.00,,CLR,0.00,VWS V14.01,2013-05-25 06:31:00,
2013-05-25 02:36:00,55.4,43.0,30.23,North,350,0.0,1.3,63,0.00,,CLR,0.00,VWS V14.01,2013-05-25 06:36:00,
2013-05-25 02:41:00,55.2,42.8,30.23,North,349,0.0,1.3,63,0.00,,CLR,0.00,VWS V14.01,2013-05-25 06:41:00,
2013-05-25 02:46:00,55.1,43.2,30.23,NNE,28,0.0,2.6,64,0.00,,CLR,0.00,VWS V14.01,2013-05-25 06:46:00,
2013-05-25 02:51:00,55.0,42.7,30.23,NNE,28,1.3,2.6,63,0.00,,CLR,0.00,VWS V14.01,2013-05-25 06:51:00,
2013-05-25 02:56:00,54.9,42.6,30.23,NW,323,1.3,3.9,63,0.00,,CLR,0.00,VWS V14.01,2013-05-25 06:56:00,
2013-05-25 03:01:00,54.9,42.6,30.23,NE,55,0.0,3.9,63,0.00,,CLR,0.00,VWS V14.01,2013-05-25 07:01:00,
2013-05-25 03:06:00,54.9,42.6,30.23,NE,55,1.3,1.3,63,0.00,,CLR,0.00,VWS V14.01,2013-05-25 07:06:00,
2013-05-25 03:11:00,55.0,43.1,30.23,NNW,329,1.3,5.2,64,0.00,,CLR,0.00,VWS V14.01,2013-05-25 07:11:00,
2013-05-25 03:16:00,55.2,42.8,30.23,WSW,248,1.3,3.9,63,0.00,,CLR,0.00,VWS V14.01,2013-05-25 07:16:00,
2013-05-25 03:21:00,55.2,42.4,30.23,WSW,248,0.0,2.6,62,0.00,,CLR,0.00,VWS V14.01,2013-05-25 07:21:00,
2013-05-25 03:26:00,55.2,42.8,30.23,NE,53,1.3,6.5,63,0.00,,CLR,0.00,VWS V14.01,2013-05-25 07:26:00,
2013-05-25 03:31:00,55.2,42.4,30.22,NW,313,0.0,3.9,62,0.00,,CLR,0.00,VWS V14.01,2013-05-25 07:31:00,
2013-05-25 03:36:00,55.2,42.8,30.22,NNE,32,0.0,5.2,63,0.00,,CLR,0.00,VWS V14.01,2013-05-25 07:36:00,
2013-05-25 03:41:00,55.3,42.5,30.22,ESE,107,5.2,5.2,62,0.00,,CLR,0.00,VWS V14.01,2013-05-25 07:41:00,
2013-05-25 03:46:00,55.5,42.3,30.22,North,350,7.8,7.8,61,0.00,,CLR,0.00,VWS V14.01,2013-05-25 07:46:00,
2013-05-25 03:51:00,55.8,42.6,30.22,NW,320,1.3,7.8,61,0.00,,CLR,0.00,VWS V14.01,2013-05-25 07:51:00,
2013-05-25 03:56:00,55.9,42.7,30.22,ESE,107,2.6,7.8,61,0.00,,CLR,0.00,VWS V14.01,2013-05-25 07:56:00,
2013-05-25 04:01:00,55.9,42.2,30.22,WSW,255,2.6,6.5,60,0.00,,CLR,0.00,VWS V14.01,2013-05-25 08:01:00,
2013-05-25 04:06:00,55.9,42.7,30.23,ENE,74,1.3,14.3,61,0.00,,CLR,0.00,VWS V14.01,2013-05-25 08:06:00,
2013-05-25 04:11:00,55.9,42.7,30.23,SE,142,2.6,3.9,61,0.00,,CLR,0.00,VWS V14.01,2013-05-25 08:11:00,
2013-05-25 04:16:00,55.9,42.7,30.22,NE,49,3.9,10.4,61,0.00,,CLR,0.00,VWS V14.01,2013-05-25 08:16:00,
2013-05-25 04:21:00,55.9,42.2,30.22,NW,323,2.6,6.5,60,0.00,,CLR,0.00,VWS V14.01,2013-05-25 08:21:00,
2013-05-25 04:26:00,55.8,42.6,30.22,NNE,20,2.6,5.2,61,0.00,,CLR,0.00,VWS V14.01,2013-05-25 08:26:00,
2013-05-25 04:31:00,55.5,42.3,30.23,NW,323,0.0,3.9,61,0.00,,CLR,0.00,VWS V14.01,2013-05-25 08:31:00,
2013-05-25 04:36:00,55.3,42.5,30.23,East,79,3.9,5.2,62,0.00,,CLR,0.00,VWS V14.01,2013-05-25 08:36:00,
2013-05-25 04:41:00,55.1,42.3,30.23,North,10,1.3,9.1,62,0.00,,CLR,0.00,VWS V14.01,2013-05-25 08:41:00,
2013-05-25 04:46:00,55.0,42.2,30.23,WNW,296,3.9,6.5,62,0.00,,CLR,0.00,VWS V14.01,2013-05-25 08:46:00,
2013-05-25 04:51:00,54.9,42.1,30.23,West,270,3.9,5.2,62,0.00,,CLR,0.00,VWS V14.01,2013-05-25 08:51:00,
2013-05-25 04:56:00,54.8,42.0,30.23,NNW,346,2.6,5.2,62,0.00,,CLR,0.00,VWS V14.01,2013-05-25 08:56:00,
2013-05-25 05:01:00,54.8,42.0,30.23,NNE,20,1.3,3.9,62,0.00,,CLR,0.00,VWS V14.01,2013-05-25 09:01:00,
2013-05-25 05:06:00,54.6,42.3,30.23,North,5,0.0,5.2,63,0.00,,CLR,0.00,VWS V14.01,2013-05-25 09:06:00,
2013-05-25 05:11:00,54.4,42.5,30.23,SE,128,1.3,3.9,64,0.00,,CLR,0.00,VWS V14.01,2013-05-25 09:11:00,
2013-05-25 05:16:00,54.2,42.3,30.23,ENE,63,1.3,2.6,64,0.00,,CLR,0.00,VWS V14.01,2013-05-25 09:16:00,
2013-05-25 05:21:00,54.0,42.1,30.23,WNW,290,0.0,5.2,64,0.00,,CLR,0.00,VWS V14.01,2013-05-25 09:21:00,
2013-05-25 05:27:00,53.7,42.2,30.23,NNW,337,1.3,3.9,65,0.00,,CLR,0.00,VWS V14.01,2013-05-25 09:27:00,
2013-05-25 05:32:00,53.6,41.7,30.23,NNW,340,1.3,3.9,64,0.00,,CLR,0.00,VWS V14.01,2013-05-25 09:32:00,
2013-05-25 05:37:00,53.5,42.0,30.24,NNE,32,2.6,2.6,65,0.00,,CLR,0.00,VWS V14.01,2013-05-25 09:37:00,
2013-05-25 05:42:00,53.4,41.9,30.24,NE,50,0.0,5.2,65,0.00,,CLR,0.00,VWS V14.01,2013-05-25 09:42:00,
2013-05-25 05:47:00,53.4,41.9,30.24,West,276,2.6,3.9,65,0.00,,CLR,0.00,VWS V14.01,2013-05-25 09:47:00,
2013-05-25 05:52:00,53.5,41.6,30.24,NNE,27,1.3,3.9,64,0.00,,CLR,0.00,VWS V14.01,2013-05-25 09:52:00,
2013-05-25 05:57:00,53.4,41.5,30.25,ENE,69,1.3,3.9,64,0.00,,CLR,0.00,VWS V14.01,2013-05-25 09:57:00,
2013-05-25 06:02:00,53.3,41.8,30.25,NE,52,1.3,2.6,65,0.00,,CLR,0.00,VWS V14.01,2013-05-25 10:02:00,
2013-05-25 06:07:00,53.1,42.1,30.25,NE,40,0.0,2.6,66,0.00,,CLR,0.00,VWS V14.01,2013-05-25 10:07:00,
2013-05-25 06:12:00,52.8,41.8,30.25,NE,40,0.0,1.3,66,0.00,,CLR,0.00,VWS V14.01,2013-05-25 10:12:00,
2013-05-25 06:17:00,52.5,41.9,30.26,NE,40,0.0,2.6,67,0.00,,CLR,0.00,VWS V14.01,2013-05-25 10:17:00,
2013-05-25 06:22:00,52.2,42.3,30.26,NE,40,1.3,1.3,69,0.00,,CLR,0.00,VWS V14.01,2013-05-25 10:22:00,
2013-05-25 06:27:00,51.8,42.3,30.26,NE,40,1.3,1.3,70,0.00,,CLR,0.00,VWS V14.01,2013-05-25 10:27:00,
2013-05-25 06:32:00,51.4,42.3,30.26,NE,40,0.0,1.3,71,0.00,,CLR,0.00,VWS V14.01,2013-05-25 10:32:00,
2013-05-25 06:37:00,51.1,42.8,30.26,NE,40,0.0,1.3,73,0.00,,CLR,0.00,VWS V14.01,2013-05-25 10:37:00,
2013-05-25 06:42:00,50.9,42.2,30.27,NE,40,1.3,2.6,72,0.00,,CLR,0.00,VWS V14.01,2013-05-25 10:42:00,
2013-05-25 06:47:00,51.0,41.9,30.27,NE,40,0.0,1.3,71,0.00,,CLR,0.00,VWS V14.01,2013-05-25 10:47:00,
2013-05-25 06:52:00,51.5,42.4,30.27,NE,40,1.3,1.3,71,0.00,,CLR,0.00,VWS V14.01,2013-05-25 10:52:00,
2013-05-25 06:57:00,51.8,43.1,30.27,NE,40,0.0,1.3,72,0.00,,CLR,0.00,VWS V14.01,2013-05-25 10:57:00,
2013-05-25 07:02:00,51.9,43.2,30.27,NE,40,1.3,1.3,72,0.00,,CLR,0.00,VWS V14.01,2013-05-25 11:02:00,
2013-05-25 07:07:00,52.0,43.6,30.28,NNW,344,1.3,1.3,73,0.00,,CLR,0.00,VWS V14.01,2013-05-25 11:07:00,
2013-05-25 07:12:00,52.3,43.5,30.28,NNW,346,0.0,3.9,72,0.00,,CLR,0.00,VWS V14.01,2013-05-25 11:12:00,
2013-05-25 07:17:00,52.6,43.8,30.28,NNW,346,1.3,1.3,72,0.00,,CLR,0.00,VWS V14.01,2013-05-25 11:17:00,
2013-05-25 07:22:00,53.2,44.0,30.28,NNW,346,0.0,1.3,71,0.00,,CLR,0.00,VWS V14.01,2013-05-25 11:22:00,
2013-05-25 07:27:00,53.6,44.1,30.28,NNW,346,0.0,2.6,70,0.00,,CLR,0.00,VWS V14.01,2013-05-25 11:27:00,
2013-05-25 07:32:00,53.8,45.0,30.28,NNW,346,0.0,1.3,72,0.00,,CLR,0.00,VWS V14.01,2013-05-25 11:32:00,
2013-05-25 07:37:00,54.1,45.3,30.28,NNW,346,0.0,0.0,72,0.00,,CLR,0.00,VWS V14.01,2013-05-25 11:37:00,
2013-05-25 07:42:00,54.6,45.0,30.29,NNW,346,0.0,1.3,70,0.00,,CLR,0.00,VWS V14.01,2013-05-25 11:42:00,
2013-05-25 07:47:00,55.7,45.7,30.29,NNW,344,0.0,2.6,69,0.00,,CLR,0.00,VWS V14.01,2013-05-25 11:47:00,
2013-05-25 07:52:00,56.7,45.9,30.29,NNW,344,0.0,0.0,67,0.00,,CLR,0.00,VWS V14.01,2013-05-25 11:52:00,
2013-05-25 07:57:00,57.0,45.8,30.29,NNW,344,0.0,1.3,66,0.00,,CLR,0.00,VWS V14.01,2013-05-25 11:57:00,
2013-05-25 08:02:00,57.6,45.5,30.29,NNW,344,0.0,2.6,64,0.00,,CLR,0.00,VWS V14.01,2013-05-25 12:02:00,
2013-05-25 08:07:00,58.2,45.3,30.29,NNW,344,1.3,2.6,62,0.00,,CLR,0.00,VWS V14.01,2013-05-25 12:07:00,
2013-05-25 08:12:00,58.6,44.8,30.30,NNW,343,0.0,1.3,60,0.00,,CLR,0.00,VWS V14.01,2013-05-25 12:12:00,
2013-05-25 08:17:00,59.5,45.2,30.30,NE,34,3.9,3.9,59,0.00,,CLR,0.00,VWS V14.01,2013-05-25 12:17:00,
2013-05-25 08:22:00,60.4,45.6,30.30,NE,34,0.0,1.3,58,0.00,,CLR,0.00,VWS V14.01,2013-05-25 12:22:00,
2013-05-25 08:27:00,60.5,43.3,30.30,NE,34,0.0,2.6,53,0.00,,CLR,0.00,VWS V14.01,2013-05-25 12:27:00,
2013-05-25 08:32:00,61.0,44.2,30.30,NE,34,1.3,2.6,54,0.00,,CLR,0.00,VWS V14.01,2013-05-25 12:32:00,
2013-05-25 08:37:00,61.5,44.7,30.30,NE,34,0.0,1.3,54,0.00,,CLR,0.00,VWS V14.01,2013-05-25 12:37:00,
2013-05-25 08:42:00,62.0,45.7,30.30,NE,34,1.3,3.9,55,0.00,,CLR,0.00,VWS V14.01,2013-05-25 12:42:00,
2013-05-25 08:47:00,62.3,44.0,30.30,ENE,61,1.3,2.6,51,0.00,,CLR,0.00,VWS V14.01,2013-05-25 12:47:00,
2013-05-25 08:52:00,62.6,43.7,30.30,NW,318,3.9,3.9,50,0.00,,CLR,0.00,VWS V14.01,2013-05-25 12:52:00,
2013-05-25 08:57:00,62.7,44.8,30.30,ENE,76,2.6,2.6,52,0.00,,CLR,0.00,VWS V14.01,2013-05-25 12:57:00,
2013-05-25 09:03:00,63.2,43.7,30.31,East,84,0.0,2.6,49,0.00,,CLR,0.00,VWS V14.01,2013-05-25 13:03:00,
2013-05-25 09:08:00,63.8,43.8,30.31,North,360,1.3,3.9,48,0.00,,CLR,0.00,VWS V14.01,2013-05-25 13:08:00,
2013-05-25 09:13:00,64.2,44.1,30.31,NNW,342,1.3,2.6,48,0.00,,CLR,0.00,VWS V14.01,2013-05-25 13:13:00,
2013-05-25 09:18:00,64.5,43.3,30.31,North,349,1.3,6.5,46,0.00,,CLR,0.00,VWS V14.01,2013-05-25 13:18:00,
2013-05-25 09:23:00,64.5,42.1,30.31,NW,305,2.6,7.8,44,0.00,,CLR,0.00,VWS V14.01,2013-05-25 13:23:00,
2013-05-25 09:28:00,64.7,41.1,30.31,NE,46,5.2,5.2,42,0.00,,CLR,0.00,VWS V14.01,2013-05-25 13:28:00,
2013-05-25 09:33:00,65.1,43.3,30.31,WSW,244,5.2,5.2,45,0.00,,CLR,0.00,VWS V14.01,2013-05-25 13:33:00,
2013-05-25 09:38:00,65.3,42.2,30.31,North,360,2.6,3.9,43,0.00,,CLR,0.00,VWS V14.01,2013-05-25 13:38:00,
2013-05-25 09:43:00,65.4,41.7,30.31,West,261,5.2,5.2,42,0.00,,CLR,0.00,VWS V14.01,2013-05-25 13:43:00,
2013-05-25 09:48:00,65.2,40.3,30.31,North,9,0.0,5.2,40,0.00,,CLR,0.00,VWS V14.01,2013-05-25 13:48:00,
2013-05-25 09:53:00,65.8,44.5,30.31,ESE,102,2.6,2.6,46,0.00,,CLR,0.00,VWS V14.01,2013-05-25 13:53:00,
2013-05-25 09:58:00,66.3,43.2,30.31,NW,306,3.9,5.2,43,0.00,,CLR,0.00,VWS V14.01,2013-05-25 13:58:00,
2013-05-25 10:03:00,66.6,44.0,30.31,East,85,0.0,3.9,44,0.00,,CLR,0.00,VWS V14.01,2013-05-25 14:03:00,
2013-05-25 10:08:00,67.3,44.1,30.31,ENE,78,3.9,6.5,43,0.00,,CLR,0.00,VWS V14.01,2013-05-25 14:08:00,
2013-05-25 10:13:00,68.0,42.1,30.31,ENE,76,2.6,3.9,39,0.00,,CLR,0.00,VWS V14.01,2013-05-25 14:13:00,
2013-05-25 10:18:00,67.9,44.0,30.31,ENE,74,1.3,2.6,42,0.00,,CLR,0.00,VWS V14.01,2013-05-25 14:18:00,
2013-05-25 10:23:00,68.3,45.0,30.31,East,87,2.6,3.9,43,0.00,,CLR,0.00,VWS V14.01,2013-05-25 14:23:00,
2013-05-25 10:28:00,68.3,42.4,30.31,East,94,3.9,5.2,39,0.00,,CLR,0.00,VWS V14.01,2013-05-25 14:28:00,
2013-05-25 10:33:00,68.0,42.1,30.31,East,94,0.0,2.6,39,0.00,,CLR,0.00,VWS V14.01,2013-05-25 14:33:00,
2013-05-25 10:38:00,68.5,45.8,30.31,ESE,117,2.6,3.9,44,0.00,,CLR,0.00,VWS V14.01,2013-05-25 14:38:00,
2013-05-25 10:43:00,68.3,42.4,30.31,WNW,288,2.6,5.2,39,0.00,,CLR,0.00,VWS V14.01,2013-05-25 14:43:00,
2013-05-25 10:48:00,67.9,41.4,30.31,SSE,153,1.3,2.6,38,0.00,,CLR,0.00,VWS V14.01,2013-05-25 14:48:00,
2013-05-25 10:53:00,68.2,43.6,30.31,SSW,212,3.9,9.1,41,0.00,,CLR,0.00,VWS V14.01,2013-05-25 14:53:00,
2013-05-25 10:58:00,68.2,43.0,30.31,SSW,197,3.9,5.2,40,0.00,,CLR,0.00,VWS V14.01,2013-05-25 14:58:00,
2013-05-25 11:03:00,68.5,44.5,30.30,SSW,194,5.2,5.2,42,0.00,,CLR,0.00,VWS V14.01,2013-05-25 15:03:00,
2013-05-25 11:08:00,68.2,41.0,30.30,SSW,193,3.9,7.8,37,0.00,,CLR,0.00,VWS V14.01,2013-05-25 15:08:00,
2013-05-25 11:13:00,67.9,40.7,30.31,South,182,5.2,6.5,37,0.00,,CLR,0.00,VWS V14.01,2013-05-25 15:13:00,
2013-05-25 11:18:00,67.8,42.0,30.31,South,186,2.6,6.5,39,0.00,,CLR,0.00,VWS V14.01,2013-05-25 15:18:00,
2013-05-25 11:23:00,68.5,42.6,30.31,WNW,297,3.9,3.9,39,0.00,,CLR,0.00,VWS V14.01,2013-05-25 15:23:00,
2013-05-25 11:28:00,68.9,41.6,30.31,West,278,5.2,13.0,37,0.00,,CLR,0.00,VWS V14.01,2013-05-25 15:28:00,
2013-05-25 11:33:00,68.5,42.6,30.30,NW,325,3.9,5.2,39,0.00,,CLR,0.00,VWS V14.01,2013-05-25 15:33:00,
2013-05-25 11:38:00,69.1,40.3,30.31,SSW,209,3.9,7.8,35,0.00,,CLR,0.00,VWS V14.01,2013-05-25 15:38:00,
2013-05-25 11:43:00,69.2,41.8,30.31,WSW,237,5.2,7.8,37,0.00,,CLR,0.00,VWS V14.01,2013-05-25 15:43:00,
2013-05-25 11:48:00,69.1,41.0,30.30,South,180,0.0,5.2,36,0.00,,CLR,0.00,VWS V14.01,2013-05-25 15:48:00,
2013-05-25 11:53:00,69.4,39.1,30.31,West,277,2.6,7.8,33,0.00,,CLR,0.00,VWS V14.01,2013-05-25 15:53:00,
2013-05-25 11:58:00,69.4,39.8,30.30,WSW,258,10.4,11.7,34,0.00,,CLR,0.00,VWS V14.01,2013-05-25 15:58:00,
2013-05-25 12:03:00,69.6,42.2,30.30,South,190,6.5,7.8,37,0.00,,CLR,0.00,VWS V14.01,2013-05-25 16:03:00,
2013-05-25 12:08:00,69.7,40.8,30.30,WSW,248,1.3,10.4,35,0.00,,CLR,0.00,VWS V14.01,2013-05-25 16:08:00,
2013-05-25 12:13:00,69.8,42.4,30.31,WNW,285,3.9,5.2,37,0.00,,CLR,0.00,VWS V14.01,2013-05-25 16:13:00,
2013-05-25 12:18:00,70.0,41.1,30.31,SW,220,3.9,9.1,35,0.00,,CLR,0.00,VWS V14.01,2013-05-25 16:18:00,
2013-05-25 12:23:00,70.4,41.5,30.30,WSW,246,2.6,7.8,35,0.00,,CLR,0.00,VWS V14.01,2013-05-25 16:23:00,
2013-05-25 12:28:00,70.3,44.2,30.30,SSW,206,1.3,10.4,39,0.00,,CLR,0.00,VWS V14.01,2013-05-25 16:28:00,
2013-05-25 12:33:00,70.8,44.0,30.30,SSW,209,3.9,7.8,38,0.00,,CLR,0.00,VWS V14.01,2013-05-25 16:33:00,
2013-05-25 12:38:00,70.7,45.2,30.30,West,265,3.9,6.5,40,0.00,,CLR,0.00,VWS V14.01,2013-05-25 16:38:00,
2013-05-25 12:44:00,71.1,46.2,30.29,SSW,195,2.6,9.1,41,0.00,,CLR,0.00,VWS V14.01,2013-05-25 16:44:00,
2013-05-25 12:49:00,71.0,46.1,30.29,SSE,161,1.3,7.8,41,0.00,,CLR,0.00,VWS V14.01,2013-05-25 16:49:00,
2013-05-25 12:54:00,71.3,44.4,30.28,WNW,284,7.8,10.4,38,0.00,,CLR,0.00,VWS V14.01,2013-05-25 16:54:00,
2013-05-25 12:59:00,70.8,44.6,30.28,SSW,203,5.2,10.4,39,0.00,,CLR,0.00,VWS V14.01,2013-05-25 16:59:00,
2013-05-25 13:04:00,70.8,44.0,30.27,WNW,284,11.7,11.7,38,0.00,,CLR,0.00,VWS V14.01,2013-05-25 17:04:00,
2013-05-25 13:09:00,71.3,44.4,30.27,SSW,194,3.9,10.4,38,0.00,,CLR,0.00,VWS V14.01,2013-05-25 17:09:00,
2013-05-25 13:14:00,71.2,44.3,30.27,West,274,5.2,10.4,38,0.00,,CLR,0.00,VWS V14.01,2013-05-25 17:14:00,
2013-05-25 13:19:00,71.1,42.8,30.27,SW,230,6.5,10.4,36,0.00,,CLR,0.00,VWS V14.01,2013-05-25 17:19:00,
2013-05-25 13:24:00,70.9,44.0,30.27,WNW,302,5.2,15.6,38,0.00,,CLR,0.00,VWS V14.01,2013-05-25 17:24:00,
2013-05-25 13:29:00,71.4,44.5,30.26,West,260,10.4,11.7,38,0.00,,CLR,0.00,VWS V14.01,2013-05-25 17:29:00,
2013-05-25 13:34:00,71.6,44.0,30.26,SSW,196,7.8,10.4,37,0.00,,CLR,0.00,VWS V14.01,2013-05-25 17:34:00,
2013-05-25 13:39:00,71.5,43.2,30.26,SSE,159,2.6,14.3,36,0.00,,CLR,0.00,VWS V14.01,2013-05-25 17:39:00,
2013-05-25 13:44:00,71.5,43.9,30.25,WSW,254,5.2,6.5,37,0.00,,CLR,0.00,VWS V14.01,2013-05-25 17:44:00,
2013-05-25 13:49:00,71.7,44.8,30.25,WSW,252,9.1,15.6,38,0.00,,CLR,0.00,VWS V14.01,2013-05-25 17:49:00,
2013-05-25 13:54:00,72.2,45.9,30.25,South,180,2.6,7.8,39,0.00,,CLR,0.00,VWS V14.01,2013-05-25 17:54:00,
2013-05-25 13:59:00,72.2,46.6,30.25,South,169,13.0,13.0,40,0.00,,CLR,0.00,VWS V14.01,2013-05-25 17:59:00,
2013-05-25 14:04:00,72.1,45.8,30.25,SW,214,6.5,11.7,39,0.00,,CLR,0.00,VWS V14.01,2013-05-25 18:04:00,
2013-05-25 14:09:00,72.0,48.9,30.24,NW,308,3.9,7.8,44,0.00,,CLR,0.00,VWS V14.01,2013-05-25 18:09:00,
2013-05-25 14:14:00,72.4,44.0,30.25,WSW,246,2.6,14.3,36,0.00,,CLR,0.00,VWS V14.01,2013-05-25 18:14:00,
2013-05-25 14:19:00,72.7,46.3,30.25,SW,226,5.2,5.2,39,0.00,,CLR,0.00,VWS V14.01,2013-05-25 18:19:00,
2013-05-25 14:24:00,72.8,45.7,30.25,WSW,244,11.7,15.6,38,0.00,,CLR,0.00,VWS V14.01,2013-05-25 18:24:00,
2013-05-25 14:29:00,72.4,44.0,30.24,SW,217,2.6,6.5,36,0.00,,CLR,0.00,VWS V14.01,2013-05-25 18:29:00,
2013-05-25 14:34:00,72.7,43.5,30.24,West,259,9.1,14.3,35,0.00,,CLR,0.00,VWS V14.01,2013-05-25 18:34:00,
2013-05-25 14:39:00,72.7,42.0,30.24,NW,305,5.2,9.1,33,0.00,,CLR,0.00,VWS V14.01,2013-05-25 18:39:00,
2013-05-25 14:44:00,73.0,45.2,30.24,WSW,248,6.5,9.1,37,0.00,,CLR,0.00,VWS V14.01,2013-05-25 18:44:00,
2013-05-25 14:49:00,72.8,43.6,30.24,WSW,240,5.2,15.6,35,0.00,,CLR,0.00,VWS V14.01,2013-05-25 18:49:00,
2013-05-25 14:54:00,72.9,45.1,30.23,South,176,9.1,9.1,37,0.00,,CLR,0.00,VWS V14.01,2013-05-25 18:54:00,
2013-05-25 14:59:00,73.3,46.2,30.22,SSE,162,1.3,9.1,38,0.00,,CLR,0.00,VWS V14.01,2013-05-25 18:59:00,
2013-05-25 15:04:00,73.7,45.8,30.22,SSW,203,6.5,7.8,37,0.00,,CLR,0.00,VWS V14.01,2013-05-25 19:04:00,
2013-05-25 15:09:00,74.0,47.5,30.22,SW,229,5.2,5.2,39,0.00,,CLR,0.00,VWS V14.01,2013-05-25 19:09:00,
2013-05-25 15:14:00,74.2,47.0,30.22,WSW,253,11.7,13.0,38,0.00,,CLR,0.00,VWS V14.01,2013-05-25 19:14:00,
2013-05-25 15:19:00,74.8,46.8,30.22,WNW,288,9.1,10.4,37,0.00,,CLR,0.00,VWS V14.01,2013-05-25 19:19:00,
2013-05-25 15:24:00,73.9,45.3,30.22,South,191,2.6,6.5,36,0.00,,CLR,0.00,VWS V14.01,2013-05-25 19:24:00,
2013-05-25 15:29:00,74.1,47.6,30.21,West,268,3.9,10.4,39,0.00,,CLR,0.00,VWS V14.01,2013-05-25 19:29:00,
2013-05-25 15:34:00,74.6,48.7,30.21,WNW,300,3.9,9.1,40,0.00,,CLR,0.00,VWS V14.01,2013-05-25 19:34:00,
2013-05-25 15:39:00,74.7,47.4,30.21,NW,319,3.9,7.8,38,0.00,,CLR,0.00,VWS V14.01,2013-05-25 19:39:00,
2013-05-25 15:44:00,74.4,47.9,30.20,WSW,238,3.9,5.2,39,0.00,,CLR,0.00,VWS V14.01,2013-05-25 19:44:00,
2013-05-25 15:49:00,74.7,48.1,30.20,West,273,2.6,11.7,39,0.00,,CLR,0.00,VWS V14.01,2013-05-25 19:49:00,
2013-05-25 15:54:00,74.8,47.5,30.20,SE,140,9.1,10.4,38,0.00,,CLR,0.00,VWS V14.01,2013-05-25 19:54:00,
2013-05-25 15:59:00,75.3,48.0,30.20,WNW,296,2.6,10.4,38,0.00,,CLR,0.00,VWS V14.01,2013-05-25 19:59:00,
2013-05-25 16:04:00,75.7,47.6,30.20,SSE,150,10.4,13.0,37,0.00,,CLR,0.00,VWS V14.01,2013-05-25 20:04:00,
2013-05-25 16:09:00,75.6,48.2,30.20,SSW,209,6.5,13.0,38,0.00,,CLR,0.00,VWS V14.01,2013-05-25 20:09:00,
2013-05-25 16:14:00,75.2,47.9,30.20,West,277,3.9,10.4,38,0.00,,CLR,0.00,VWS V14.01,2013-05-25 20:14:00,
2013-05-25 16:19:00,75.0,47.7,30.20,WNW,301,3.9,9.1,38,0.00,,CLR,0.00,VWS V14.01,2013-05-25 20:19:00,
2013-05-25 16:25:00,75.1,47.8,30.20,NW,306,10.4,11.7,38,0.00,,CLR,0.00,VWS V14.01,2013-05-25 20:25:00,
2013-05-25 16:30:00,75.1,48.5,30.20,SSW,198,5.2,11.7,39,0.00,,CLR,0.00,VWS V14.01,2013-05-25 20:30:00,
2013-05-25 16:35:00,75.1,47.8,30.20,SSE,160,5.2,11.7,38,0.00,,CLR,0.00,VWS V14.01,2013-05-25 20:35:00,
2013-05-25 16:40:00,75.0,50.4,30.20,SW,217,2.6,10.4,42,0.00,,CLR,0.00,VWS V14.01,2013-05-25 20:40:00,
2013-05-25 16:45:00,75.3,48.7,30.20,SW,232,6.5,11.7,39,0.00,,CLR,0.00,VWS V14.01,2013-05-25 20:45:00,
2013-05-25 16:50:00,75.5,48.8,30.19,West,276,5.2,10.4,39,0.00,,CLR,0.00,VWS V14.01,2013-05-25 20:50:00,
2013-05-25 16:55:00,75.6,48.9,30.19,WSW,250,3.9,7.8,39,0.00,,CLR,0.00,VWS V14.01,2013-05-25 20:55:00,
2013-05-25 17:00:00,75.8,49.8,30.19,SSW,207,9.1,10.4,40,0.00,,CLR,0.00,VWS V14.01,2013-05-25 21:00:00,
2013-05-25 17:05:00,75.4,48.8,30.19,WNW,286,7.8,11.7,39,0.00,,CLR,0.00,VWS V14.01,2013-05-25 21:05:00,
2013-05-25 17:10:00,75.5,50.8,30.20,West,270,11.7,11.7,42,0.00,,CLR,0.00,VWS V14.01,2013-05-25 21:10:00,
2013-05-25 17:15:00,75.8,51.7,30.19,SW,236,1.3,6.5,43,0.00,,CLR,0.00,VWS V14.01,2013-05-25 21:15:00,
2013-05-25 17:20:00,76.0,51.3,30.19,WSW,255,5.2,9.1,42,0.00,,CLR,0.00,VWS V14.01,2013-05-25 21:20:00,
2013-05-25 17:25:00,75.7,51.6,30.19,SW,235,5.2,13.0,43,0.00,,CLR,0.00,VWS V14.01,2013-05-25 21:25:00,
2013-05-25 17:30:00,75.1,49.8,30.19,WNW,301,6.5,13.0,41,0.00,,CLR,0.00,VWS V14.01,2013-05-25 21:30:00,
2013-05-25 17:35:00,75.3,51.3,30.19,WNW,294,9.1,9.1,43,0.00,,CLR,0.00,VWS V14.01,2013-05-25 21:35:00,
2013-05-25 17:40:00,74.9,50.3,30.19,WSW,245,5.2,9.1,42,0.00,,CLR,0.00,VWS V14.01,2013-05-25 21:40:00,
2013-05-25 17:45:00,74.8,50.8,30.19,SW,223,3.9,9.1,43,0.00,,CLR,0.00,VWS V14.01,2013-05-25 21:45:00,
2013-05-25 17:50:00,74.9,50.3,30.19,WSW,238,7.8,14.3,42,0.00,,CLR,0.00,VWS V14.01,2013-05-25 21:50:00,
2013-05-25 17:55:00,74.6,51.3,30.19,SW,236,7.8,7.8,44,0.00,,CLR,0.00,VWS V14.01,2013-05-25 21:55:00,
2013-05-25 18:00:00,74.9,51.5,30.19,South,180,2.6,13.0,44,0.00,,CLR,0.00,VWS V14.01,2013-05-25 22:00:00,
2013-05-25 18:05:00,75.0,50.4,30.19,SW,217,5.2,14.3,42,0.00,,CLR,0.00,VWS V14.01,2013-05-25 22:05:00,
2013-05-25 18:10:00,75.1,50.5,30.19,WSW,246,3.9,10.4,42,0.00,,CLR,0.00,VWS V14.01,2013-05-25 22:10:00,
2013-05-25 18:15:00,75.0,50.4,30.19,WNW,296,9.1,13.0,42,0.00,,CLR,0.00,VWS V14.01,2013-05-25 22:15:00,
2013-05-25 18:20:00,75.3,51.3,30.19,SSW,205,7.8,7.8,43,0.00,,CLR,0.00,VWS V14.01,2013-05-25 22:20:00,
2013-05-25 18:25:00,75.2,51.2,30.19,WSW,253,1.3,14.3,43,0.00,,CLR,0.00,VWS V14.01,2013-05-25 22:25:00,
2013-05-25 18:30:00,74.9,52.2,30.19,WNW,303,3.9,5.2,45,0.00,,CLR,0.00,VWS V14.01,2013-05-25 22:30:00,
2013-05-25 18:35:00,74.9,51.5,30.19,WSW,239,3.9,7.8,44,0.00,,CLR,0.00,VWS V14.01,2013-05-25 22:35:00,
2013-05-25 18:40:00,74.6,52.5,30.18,SSW,194,2.6,5.2,46,0.00,,CLR,0.00,VWS V14.01,2013-05-25 22:40:00,
2013-05-25 18:45:00,74.2,51.5,30.18,West,271,9.1,10.4,45,0.00,,CLR,0.00,VWS V14.01,2013-05-25 22:45:00,
2013-05-25 18:50:00,74.3,52.2,30.18,WSW,248,11.7,11.7,46,0.00,,CLR,0.00,VWS V14.01,2013-05-25 22:50:00,
2013-05-25 18:55:00,74.2,51.5,30.18,WNW,286,3.9,9.1,45,0.00,,CLR,0.00,VWS V14.01,2013-05-25 22:55:00,
2013-05-25 19:00:00,74.0,51.9,30.18,SW,235,2.6,9.1,46,0.00,,CLR,0.00,VWS V14.01,2013-05-25 23:00:00,
2013-05-25 19:05:00,74.0,51.3,30.18,WSW,238,6.5,10.4,45,0.00,,CLR,0.00,VWS V14.01,2013-05-25 23:05:00,
2013-05-25 19:10:00,73.9,51.2,30.19,WSW,243,7.8,14.3,45,0.00,,CLR,0.00,VWS V14.01,2013-05-25 23:10:00,
2013-05-25 19:15:00,73.6,51.6,30.18,South,171,1.3,6.5,46,0.00,,CLR,0.00,VWS V14.01,2013-05-25 23:15:00,
2013-05-25 19:20:00,73.8,52.3,30.19,West,274,1.3,2.6,47,0.00,,CLR,0.00,VWS V14.01,2013-05-25 23:20:00,
2013-05-25 19:25:00,73.7,51.7,30.19,West,268,1.3,7.8,46,0.00,,CLR,0.00,VWS V14.01,2013-05-25 23:25:00,
2013-05-25 19:30:00,73.5,52.1,30.19,SW,216,0.0,2.6,47,0.00,,CLR,0.00,VWS V14.01,2013-05-25 23:30:00,
2013-05-25 19:35:00,73.5,52.1,30.19,WNW,297,0.0,1.3,47,0.00,,CLR,0.00,VWS V14.01,2013-05-25 23:35:00,
2013-05-25 19:40:00,73.3,51.9,30.19,WNW,297,1.3,2.6,47,0.00,,CLR,0.00,VWS V14.01,2013-05-25 23:40:00,
2013-05-25 19:45:00,73.1,52.3,30.19,WNW,297,0.0,3.9,48,0.00,,CLR,0.00,VWS V14.01,2013-05-25 23:45:00,
2013-05-25 19:51:00,72.8,52.0,30.19,WSW,256,0.0,2.6,48,0.00,,CLR,0.00,VWS V14.01,2013-05-25 23:51:00,
2013-05-25 19:56:00,72.2,52.0,30.19,SW,220,2.6,5.2,49,0.00,,CLR,0.00,VWS V14.01,2013-05-25 23:56:00,
2013-05-25 20:01:00,71.4,51.3,30.19,SW,220,3.9,3.9,49,0.00,,CLR,0.00,VWS V14.01,2013-05-26 00:01:00,
2013-05-25 20:06:00,70.9,51.9,30.19,SW,220,1.3,2.6,51,0.00,,CLR,0.00,VWS V14.01,2013-05-26 00:06:00,
2013-05-25 20:11:00,70.6,52.7,30.19,SW,220,0.0,3.9,53,0.00,,CLR,0.00,VWS V14.01,2013-05-26 00:11:00,
2013-05-25 20:16:00,70.3,53.4,30.19,SW,220,1.3,2.6,55,0.00,,CLR,0.00,VWS V14.01,2013-05-26 00:16:00,
2013-05-25 20:21:00,69.9,52.5,30.19,SW,220,0.0,1.3,54,0.00,,CLR,0.00,VWS V14.01,2013-05-26 00:21:00,
2013-05-25 20:26:00,69.2,52.8,30.19,SW,220,0.0,1.3,56,0.00,,CLR,0.00,VWS V14.01,2013-05-26 00:26:00,
2013-05-25 20:31:00,68.5,53.2,30.19,SW,220,0.0,1.3,58,0.00,,CLR,0.00,VWS V14.01,2013-05-26 00:31:00,
2013-05-25 20:36:00,67.9,52.6,30.19,SW,220,0.0,2.6,58,0.00,,CLR,0.00,VWS V14.01,2013-05-26 00:36:00,
2013-05-25 20:41:00,67.3,53.0,30.19,SW,220,0.0,0.0,60,0.00,,CLR,0.00,VWS V14.01,2013-05-26 00:41:00,
2013-05-25 20:46:00,66.9,52.1,30.20,SW,220,0.0,2.6,59,0.00,,CLR,0.00,VWS V14.01,2013-05-26 00:46:00,
2013-05-25 20:51:00,66.8,52.5,30.20,SW,220,0.0,1.3,60,0.00,,CLR,0.00,VWS V14.01,2013-05-26 00:51:00,
2013-05-25 20:56:00,66.7,52.4,30.20,SW,220,0.0,1.3,60,0.00,,CLR,0.00,VWS V14.01,2013-05-26 00:56:00,
2013-05-25 21:01:00,66.3,52.5,30.19,SW,220,0.0,0.0,61,0.00,,CLR,0.00,VWS V14.01,2013-05-26 01:01:00,
2013-05-25 21:06:00,65.6,52.7,30.20,SW,220,1.3,1.3,63,0.00,,CLR,0.00,VWS V14.01,2013-05-26 01:06:00,
2013-05-25 21:11:00,64.9,52.5,30.20,SW,220,0.0,0.0,64,0.00,,CLR,0.00,VWS V14.01,2013-05-26 01:11:00,
2013-05-25 21:16:00,64.4,52.8,30.20,SW,220,0.0,0.0,66,0.00,,CLR,0.00,VWS V14.01,2013-05-26 01:16:00,
2013-05-25 21:21:00,63.9,53.5,30.19,SW,220,0.0,0.0,69,0.00,,CLR,0.00,VWS V14.01,2013-05-26 01:21:00,
2013-05-25 21:26:00,63.5,53.5,30.20,SW,220,0.0,1.3,70,0.00,,CLR,0.00,VWS V14.01,2013-05-26 01:26:00,
2013-05-25 21:31:00,63.2,54.0,30.19,SW,220,0.0,1.3,72,0.00,,CLR,0.00,VWS V14.01,2013-05-26 01:31:00,
2013-05-25 21:36:00,62.9,53.4,30.20,SW,220,0.0,1.3,71,0.00,,CLR,0.00,VWS V14.01,2013-05-26 01:36:00,
2013-05-25 21:41:00,62.4,53.3,30.20,SW,220,0.0,1.3,72,0.00,,CLR,0.00,VWS V14.01,2013-05-26 01:41:00,
2013-05-25 21:46:00,61.9,53.2,30.20,SW,220,0.0,0.0,73,0.00,,CLR,0.00,VWS V14.01,2013-05-26 01:46:00,
2013-05-25 21:51:00,61.5,53.2,30.21,SW,220,0.0,0.0,74,0.00,,CLR,0.00,VWS V14.01,2013-05-26 01:51:00,
2013-05-25 21:56:00,61.1,52.8,30.21,SW,220,0.0,1.3,74,0.00,,CLR,0.00,VWS V14.01,2013-05-26 01:56:00,
2013-05-25 22:01:00,60.6,52.6,30.20,SW,220,0.0,1.3,75,0.00,,CLR,0.00,VWS V14.01,2013-05-26 02:01:00,
2013-05-25 22:06:00,60.4,52.8,30.20,SW,220,0.0,1.3,76,0.00,,CLR,0.00,VWS V14.01,2013-05-26 02:06:00,
2013-05-25 22:11:00,60.2,52.6,30.20,SW,220,0.0,1.3,76,0.00,,CLR,0.00,VWS V14.01,2013-05-26 02:11:00,
2013-05-25 22:16:00,60.0,52.4,30.20,SW,220,0.0,0.0,76,0.00,,CLR,0.00,VWS V14.01,2013-05-26 02:16:00,
2013-05-25 22:21:00,59.9,52.7,30.20,SW,220,0.0,0.0,77,0.00,,CLR,0.00,VWS V14.01,2013-05-26 02:21:00,
2013-05-25 22:26:00,59.7,52.1,30.20,SW,220,0.0,0.0,76,0.00,,CLR,0.00,VWS V14.01,2013-05-26 02:26:00,
2013-05-25 22:31:00,59.6,52.4,30.20,SW,220,0.0,0.0,77,0.00,,CLR,0.00,VWS V14.01,2013-05-26 02:31:00,
2013-05-25 22:36:00,59.4,52.5,30.20,SW,220,0.0,1.3,78,0.00,,CLR,0.00,VWS V14.01,2013-05-26 02:36:00,
2013-05-25 22:41:00,59.3,52.8,30.20,SW,220,0.0,1.3,79,0.00,,CLR,0.00,VWS V14.01,2013-05-26 02:41:00,
2013-05-25 22:46:00,59.0,52.5,30.20,SW,220,0.0,0.0,79,0.00,,CLR,0.00,VWS V14.01,2013-05-26 02:46:00,
2013-05-25 22:51:00,58.8,52.3,30.20,SW,220,0.0,0.0,79,0.00,,CLR,0.00,VWS V14.01,2013-05-26 02:51:00,
2013-05-25 22:56:00,58.5,52.4,30.20,SW,220,0.0,1.3,80,0.00,,CLR,0.00,VWS V14.01,2013-05-26 02:56:00,
2013-05-25 23:01:00,58.2,52.4,30.20,SW,220,0.0,0.0,81,0.00,,CLR,0.00,VWS V14.01,2013-05-26 03:01:00,
2013-05-25 23:06:00,57.9,51.8,30.20,SW,220,0.0,0.0,80,0.00,,CLR,0.00,VWS V14.01,2013-05-26 03:06:00,
2013-05-25 23:12:00,57.6,51.8,30.19,SW,220,0.0,0.0,81,0.00,,CLR,0.00,VWS V14.01,2013-05-26 03:12:00,
2013-05-25 23:17:00,57.3,51.5,30.19,SW,220,0.0,0.0,81,0.00,,CLR,0.00,VWS V14.01,2013-05-26 03:17:00,
2013-05-25 23:22:00,57.3,51.5,30.18,SW,220,0.0,1.3,81,0.00,,CLR,0.00,VWS V14.01,2013-05-26 03:22:00,
2013-05-25 23:27:00,57.3,51.2,30.18,SW,220,0.0,1.3,80,0.00,,CLR,0.00,VWS V14.01,2013-05-26 03:27:00,
2013-05-25 23:32:00,57.3,50.8,30.18,SW,220,0.0,0.0,79,0.00,,CLR,0.00,VWS V14.01,2013-05-26 03:32:00,
2013-05-25 23:37:00,57.2,51.1,30.18,SW,220,0.0,0.0,80,0.00,,CLR,0.00,VWS V14.01,2013-05-26 03:37:00,
2013-05-25 23:42:00,56.9,50.8,30.18,SW,220,0.0,1.3,80,0.00,,CLR,0.00,VWS V14.01,2013-05-26 03:42:00,
2013-05-25 23:47:00,56.7,51.3,30.19,SW,220,0.0,0.0,82,0.00,,CLR,0.00,VWS V14.01,2013-05-26 03:47:00,
2013-05-25 23:52:00,56.5,51.1,30.18,SW,220,0.0,0.0,82,0.00,,CLR,0.00,VWS V14.01,2013-05-26 03:52:00,
2013-05-25 23:57:00,56.3,50.9,30.19,SW,220,0.0,0.0,82,0.00,,CLR,0.00,VWS V14.01,2013-05-26 03:57:00,